Sakizaya Integrity — 3FQZ6 — position and weather

sailwx.info

Track history (hours):
 
Tides and Currents Weather Stations Pressure Air Temp Water Temp Dewpoint Dewpoint Depression Visibility Wind Speed Wind Dir Waves Ship Positions

Sakizaya Integrity

Last reported at 2017-Oct-17 03:04 UTC. Time now 2017-Oct-17 20:41 UTC.
Position N 30°29' W 014°03'.

Length 229 m; draft 12.7 m.

Type: Cargo ship. MMSI: 372840000.

Date/timePositionNaut miles runAvg speedWind from/ knotsBaromVisibWave heightAir tempDewpointWater temp
2017-Oct-17 03:04N 30°29' W 014°03'1012.0
2017-Oct-17 02:14N 30°19' W 014°06'312.3
2017-Oct-17 02:00N 30°17' W 014°07'612.3
2017-Oct-17 01:30N 30°11' W 014°09'612.3
2017-Oct-17 01:00N 30°05' W 014°11'612.2
2017-Oct-17 00:30N 29°59' W 014°13'612.4
2017-Oct-17 00:00N 29°53' W 014°15'612.4
2017-Oct-16 23:30N 29°47' W 014°18'612.3
2017-Oct-16 23:00N 29°41' W 014°20'612.2
2017-Oct-16 22:30N 29°36' W 014°22'612.4
2017-Oct-16 22:00N 29°30' W 014°24'612.4
2017-Oct-16 21:30N 29°24' W 014°26'612.3
2017-Oct-16 21:00N 29°18' W 014°29'612.1
2017-Oct-16 20:30N 29°12' W 014°31'612.3
2017-Oct-16 20:00N 29°06' W 014°33'612.2
2017-Oct-16 19:30N 29°00' W 014°35'612.3
2017-Oct-16 19:00N 28°55' W 014°37'612.4
2017-Oct-16 18:30N 28°49' W 014°39'612.0
2017-Oct-16 18:00N 28°43' W 014°41'612.4
2017-Oct-16 17:30N 28°37' W 014°43'612.6
2017-Oct-16 17:00N 28°31' W 014°45'612.5
2017-Oct-16 16:30N 28°25' W 014°48'611.4
2017-Oct-16 16:00N 28°20' W 014°49'612.5
2017-Oct-16 15:30N 28°14' W 014°52'612.5
2017-Oct-16 15:00N 28°08' W 014°54'612.3
2017-Oct-16 14:30N 28°02' W 014°57'1312.5
2017-Oct-16 13:30N 27°50' W 015°02'612.9
2017-Oct-16 13:00N 27°44' W 015°05'713.2
2017-Oct-16 12:30N 27°38' W 015°08'713.0
2017-Oct-16 12:00N 27°33' W 015°11'612.7
2017-Oct-16 11:30N 27°27' W 015°14'712.5
2017-Oct-16 10:56N 27°20' W 015°17'912.6
2017-Oct-16 10:13N 27°12' W 015°22'4512.7
2017-Oct-16 06:41N 26°31' W 015°42'612.6
2017-Oct-16 06:11N 26°26' W 015°45'412.3
2017-Oct-16 05:53N 26°22' W 015°47'  
Track history (hours):
 
Tides and Currents Weather Stations Pressure Air Temp Water Temp Dewpoint Dewpoint Depression Visibility Wind Speed Wind Dir Waves Ship Positions

Sakizaya Integrity

Last reported at 2017-Oct-17 03:04 UTC. Time now 2017-Oct-17 20:41 UTC.
Position N 30°29' W 014°03'.

Length 229 m; draft 12.7 m.

Type: Cargo ship. MMSI: 372840000.

Date/timePositionNaut miles runAvg speedWind from/ knotsBaromVisibWave heightAir tempDewpointWater temp
2017-Oct-17 03:04N 30°29' W 014°03'1012.0
2017-Oct-17 02:14N 30°19' W 014°06'312.3
2017-Oct-17 02:00N 30°17' W 014°07'612.3
2017-Oct-17 01:30N 30°11' W 014°09'612.3
2017-Oct-17 01:00N 30°05' W 014°11'612.2
2017-Oct-17 00:30N 29°59' W 014°13'612.4
2017-Oct-17 00:00N 29°53' W 014°15'612.4
2017-Oct-16 23:30N 29°47' W 014°18'612.3
2017-Oct-16 23:00N 29°41' W 014°20'612.2
2017-Oct-16 22:30N 29°36' W 014°22'612.4
2017-Oct-16 22:00N 29°30' W 014°24'612.4
2017-Oct-16 21:30N 29°24' W 014°26'612.3
2017-Oct-16 21:00N 29°18' W 014°29'612.1
2017-Oct-16 20:30N 29°12' W 014°31'612.3
2017-Oct-16 20:00N 29°06' W 014°33'612.2
2017-Oct-16 19:30N 29°00' W 014°35'612.3
2017-Oct-16 19:00N 28°55' W 014°37'612.4
2017-Oct-16 18:30N 28°49' W 014°39'612.0
2017-Oct-16 18:00N 28°43' W 014°41'612.4
2017-Oct-16 17:30N 28°37' W 014°43'612.6
2017-Oct-16 17:00N 28°31' W 014°45'612.5
2017-Oct-16 16:30N 28°25' W 014°48'611.4
2017-Oct-16 16:00N 28°20' W 014°49'612.5
2017-Oct-16 15:30N 28°14' W 014°52'612.5
2017-Oct-16 15:00N 28°08' W 014°54'612.3
2017-Oct-16 14:30N 28°02' W 014°57'1312.5
2017-Oct-16 13:30N 27°50' W 015°02'612.9
2017-Oct-16 13:00N 27°44' W 015°05'713.2
2017-Oct-16 12:30N 27°38' W 015°08'713.0
2017-Oct-16 12:00N 27°33' W 015°11'612.7
2017-Oct-16 11:30N 27°27' W 015°14'712.5
2017-Oct-16 10:56N 27°20' W 015°17'912.6
2017-Oct-16 10:13N 27°12' W 015°22'4512.7
2017-Oct-16 06:41N 26°31' W 015°42'612.6
2017-Oct-16 06:11N 26°26' W 015°45'412.3
2017-Oct-16 05:53N 26°22' W 015°47'  

Dump ship's entire track history